Orsa Maggiore — IAOM — position and weather

sailwx.info

Track history (hours):
 
Tides and Currents Weather Stations Pressure Air Temp Water Temp Dewpoint Dewpoint Depression Visibility Wind Speed Wind Dir Waves Ship Positions

Orsa Maggiore

Last reported at 2017-Sep-03 11:01 UTC. Time now 2017-Sep-21 01:29 UTC.
Position N 38°32' E 015°40'.
Warning: this ship's position is 17 days out of date.

Length 28 m.

Type: Sailing vessel. MMSI: 247938000.

Date/timePositionNaut miles runAvg speedWind from/ knotsBaromVisibWave heightAir tempDewpointWater temp
2017-Sep-03 11:01N 38°32' E 015°40'4 8.3
2017-Sep-03 10:34N 38°28' E 015°41'1 6.9
2017-Sep-03 10:28N 38°28' E 015°41'3 6.5
2017-Sep-03 10:00N 38°25' E 015°41'3 6.3
2017-Sep-03 09:28N 38°21' E 015°42'3 5.7
2017-Sep-03 09:01N 38°19' E 015°41'3 5.4
2017-Sep-03 08:29N 38°16' E 015°40'3 6.0
2017-Sep-03 07:59N 38°14' E 015°38'3 6.5
2017-Sep-03 07:30N 38°12' E 015°34'  
2017-Aug-31 06:01N 38°12' E 015°34'1 6.7
2017-Aug-31 05:56N 38°13' E 015°35'7 2.9
2017-Aug-31 03:37N 38°19' E 015°38'1 5.1
2017-Aug-31 03:29N 38°20' E 015°37'2 4.8
2017-Aug-31 02:59N 38°21' E 015°35'2 4.6
2017-Aug-31 02:30N 38°22' E 015°32'2 5.0
2017-Aug-31 02:00N 38°23' E 015°30'3 5.0
2017-Aug-31 01:30N 38°25' E 015°27'3 5.3
2017-Aug-31 01:00N 38°26' E 015°24'3 6.5
2017-Aug-31 00:30N 38°28' E 015°21'103 3.3
2017-Aug-29 16:40N 38°25' E 013°09'2 7.0
2017-Aug-29 16:22N 38°25' E 013°06'3 7.1
2017-Aug-29 15:57N 38°25' E 013°02'3 6.7
2017-Aug-29 15:31N 38°25' E 012°58'4 6.6
2017-Aug-29 14:53N 38°25' E 012°53'148 6.5
2017-Aug-28 16:15N 39°01' E 009°49'3 7.5
2017-Aug-28 15:49N 39°01' E 009°45'3 7.4
2017-Aug-28 15:28N 39°02' E 009°42'3 7.4
2017-Aug-28 15:00N 39°03' E 009°37'4 7.3
2017-Aug-28 14:30N 39°04' E 009°33'4 7.2
2017-Aug-28 13:57N 39°05' E 009°28'2 5.0
2017-Aug-28 13:30N 39°06' E 009°25'3 5.2
2017-Aug-28 13:00N 39°06' E 009°22'4 6.7
2017-Aug-28 12:28N 39°07' E 009°18'1 2.5
2017-Aug-28 11:59N 39°08' E 009°17'3 6.0
2017-Aug-28 11:30N 39°08' E 009°13'3 6.2
2017-Aug-28 10:59N 39°09' E 009°09'2 3.7
2017-Aug-28 10:30N 39°10' E 009°07'2 3.2
2017-Aug-28 10:00N 39°11' E 009°07'1 2.3
2017-Aug-28 09:30N 39°13' E 009°07'  
2017-Aug-25 07:53N 39°13' E 009°07'0 0.0
2017-Aug-25 07:29N 39°13' E 009°07'0 0.0
2017-Aug-25 06:59N 39°13' E 009°07'0 0.0
2017-Aug-25 06:29N 39°13' E 009°07'2 3.9
2017-Aug-25 06:00N 39°11' E 009°07'0 0.7
2017-Aug-25 05:30N 39°11' E 009°07'0 0.0
2017-Aug-25 05:00N 39°11' E 009°07'0 0.0
2017-Aug-25 04:30N 39°11' E 009°07'0 0.0
2017-Aug-25 04:00N 39°11' E 009°07'0 0.0
2017-Aug-25 03:30N 39°11' E 009°07'0 0.0
2017-Aug-25 03:00N 39°11' E 009°07'0 0.0
2017-Aug-25 02:30N 39°11' E 009°07'0 0.0
2017-Aug-25 02:00N 39°11' E 009°07'0 0.0
2017-Aug-25 01:30N 39°11' E 009°07'0 0.0
2017-Aug-25 01:00N 39°11' E 009°07'0 0.0
2017-Aug-25 00:30N 39°11' E 009°07'0 0.0
2017-Aug-25 00:00N 39°11' E 009°07'0 0.0
2017-Aug-24 23:30N 39°11' E 009°07'0 0.0
2017-Aug-24 23:00N 39°11' E 009°07'0 0.0
2017-Aug-24 22:30N 39°11' E 009°07'0 0.0
2017-Aug-24 22:00N 39°11' E 009°07'0 0.0
2017-Aug-24 21:24N 39°11' E 009°07'0 0.0
2017-Aug-24 21:00N 39°11' E 009°07'0 0.0
2017-Aug-24 20:30N 39°11' E 009°07'0 0.0
2017-Aug-24 20:00N 39°11' E 009°07'0 0.0
2017-Aug-24 19:30N 39°11' E 009°07'0 0.0
2017-Aug-24 19:00N 39°11' E 009°07'0 0.0
2017-Aug-24 18:30N 39°11' E 009°07'0 0.0
2017-Aug-24 18:00N 39°11' E 009°07'0 0.0
2017-Aug-24 17:30N 39°11' E 009°07'0 0.0
2017-Aug-24 16:54N 39°11' E 009°07'0 0.0
2017-Aug-24 16:30N 39°11' E 009°07'0 0.0
2017-Aug-24 16:00N 39°11' E 009°07'0 0.0
2017-Aug-24 15:30N 39°11' E 009°07'0 0.0
2017-Aug-24 14:57N 39°11' E 009°07'0 0.0
2017-Aug-24 14:30N 39°11' E 009°07'0 0.0
2017-Aug-24 14:00N 39°11' E 009°07'1 2.2
2017-Aug-24 13:29N 39°11' E 009°09'4 8.5
2017-Aug-24 13:00N 39°12' E 009°14'5 9.6
2017-Aug-24 12:30N 39°09' E 009°09'1 1.5
2017-Aug-24 12:00N 39°09' E 009°08'3 5.3
2017-Aug-24 11:30N 39°10' E 009°11'  
Track history (hours):
 
Tides and Currents Weather Stations Pressure Air Temp Water Temp Dewpoint Dewpoint Depression Visibility Wind Speed Wind Dir Waves Ship Positions

Orsa Maggiore

Last reported at 2017-Sep-03 11:01 UTC. Time now 2017-Sep-21 01:29 UTC.
Position N 38°32' E 015°40'.
Warning: this ship's position is 17 days out of date.

Length 28 m.

Type: Sailing vessel. MMSI: 247938000.

Date/timePositionNaut miles runAvg speedWind from/ knotsBaromVisibWave heightAir tempDewpointWater temp
2017-Sep-03 11:01N 38°32' E 015°40'4 8.3
2017-Sep-03 10:34N 38°28' E 015°41'1 6.9
2017-Sep-03 10:28N 38°28' E 015°41'3 6.5
2017-Sep-03 10:00N 38°25' E 015°41'3 6.3
2017-Sep-03 09:28N 38°21' E 015°42'3 5.7
2017-Sep-03 09:01N 38°19' E 015°41'3 5.4
2017-Sep-03 08:29N 38°16' E 015°40'3 6.0
2017-Sep-03 07:59N 38°14' E 015°38'3 6.5
2017-Sep-03 07:30N 38°12' E 015°34'  
2017-Aug-31 06:01N 38°12' E 015°34'1 6.7
2017-Aug-31 05:56N 38°13' E 015°35'7 2.9
2017-Aug-31 03:37N 38°19' E 015°38'1 5.1
2017-Aug-31 03:29N 38°20' E 015°37'2 4.8
2017-Aug-31 02:59N 38°21' E 015°35'2 4.6
2017-Aug-31 02:30N 38°22' E 015°32'2 5.0
2017-Aug-31 02:00N 38°23' E 015°30'3 5.0
2017-Aug-31 01:30N 38°25' E 015°27'3 5.3
2017-Aug-31 01:00N 38°26' E 015°24'3 6.5
2017-Aug-31 00:30N 38°28' E 015°21'103 3.3
2017-Aug-29 16:40N 38°25' E 013°09'2 7.0
2017-Aug-29 16:22N 38°25' E 013°06'3 7.1
2017-Aug-29 15:57N 38°25' E 013°02'3 6.7
2017-Aug-29 15:31N 38°25' E 012°58'4 6.6
2017-Aug-29 14:53N 38°25' E 012°53'148 6.5
2017-Aug-28 16:15N 39°01' E 009°49'3 7.5
2017-Aug-28 15:49N 39°01' E 009°45'3 7.4
2017-Aug-28 15:28N 39°02' E 009°42'3 7.4
2017-Aug-28 15:00N 39°03' E 009°37'4 7.3
2017-Aug-28 14:30N 39°04' E 009°33'4 7.2
2017-Aug-28 13:57N 39°05' E 009°28'2 5.0
2017-Aug-28 13:30N 39°06' E 009°25'3 5.2
2017-Aug-28 13:00N 39°06' E 009°22'4 6.7
2017-Aug-28 12:28N 39°07' E 009°18'1 2.5
2017-Aug-28 11:59N 39°08' E 009°17'3 6.0
2017-Aug-28 11:30N 39°08' E 009°13'3 6.2
2017-Aug-28 10:59N 39°09' E 009°09'2 3.7
2017-Aug-28 10:30N 39°10' E 009°07'2 3.2
2017-Aug-28 10:00N 39°11' E 009°07'1 2.3
2017-Aug-28 09:30N 39°13' E 009°07'  
2017-Aug-25 07:53N 39°13' E 009°07'0 0.0
2017-Aug-25 07:29N 39°13' E 009°07'0 0.0
2017-Aug-25 06:59N 39°13' E 009°07'0 0.0
2017-Aug-25 06:29N 39°13' E 009°07'2 3.9
2017-Aug-25 06:00N 39°11' E 009°07'0 0.7
2017-Aug-25 05:30N 39°11' E 009°07'0 0.0
2017-Aug-25 05:00N 39°11' E 009°07'0 0.0
2017-Aug-25 04:30N 39°11' E 009°07'0 0.0
2017-Aug-25 04:00N 39°11' E 009°07'0 0.0
2017-Aug-25 03:30N 39°11' E 009°07'0 0.0
2017-Aug-25 03:00N 39°11' E 009°07'0 0.0
2017-Aug-25 02:30N 39°11' E 009°07'0 0.0
2017-Aug-25 02:00N 39°11' E 009°07'0 0.0
2017-Aug-25 01:30N 39°11' E 009°07'0 0.0
2017-Aug-25 01:00N 39°11' E 009°07'0 0.0
2017-Aug-25 00:30N 39°11' E 009°07'0 0.0
2017-Aug-25 00:00N 39°11' E 009°07'0 0.0
2017-Aug-24 23:30N 39°11' E 009°07'0 0.0
2017-Aug-24 23:00N 39°11' E 009°07'0 0.0
2017-Aug-24 22:30N 39°11' E 009°07'0 0.0
2017-Aug-24 22:00N 39°11' E 009°07'0 0.0
2017-Aug-24 21:24N 39°11' E 009°07'0 0.0
2017-Aug-24 21:00N 39°11' E 009°07'0 0.0
2017-Aug-24 20:30N 39°11' E 009°07'0 0.0
2017-Aug-24 20:00N 39°11' E 009°07'0 0.0
2017-Aug-24 19:30N 39°11' E 009°07'0 0.0
2017-Aug-24 19:00N 39°11' E 009°07'0 0.0
2017-Aug-24 18:30N 39°11' E 009°07'0 0.0
2017-Aug-24 18:00N 39°11' E 009°07'0 0.0
2017-Aug-24 17:30N 39°11' E 009°07'0 0.0
2017-Aug-24 16:54N 39°11' E 009°07'0 0.0
2017-Aug-24 16:30N 39°11' E 009°07'0 0.0
2017-Aug-24 16:00N 39°11' E 009°07'0 0.0
2017-Aug-24 15:30N 39°11' E 009°07'0 0.0
2017-Aug-24 14:57N 39°11' E 009°07'0 0.0
2017-Aug-24 14:30N 39°11' E 009°07'0 0.0
2017-Aug-24 14:00N 39°11' E 009°07'1 2.2
2017-Aug-24 13:29N 39°11' E 009°09'4 8.5
2017-Aug-24 13:00N 39°12' E 009°14'5 9.6
2017-Aug-24 12:30N 39°09' E 009°09'1 1.5
2017-Aug-24 12:00N 39°09' E 009°08'3 5.3
2017-Aug-24 11:30N 39°10' E 009°11'  

Dump ship's entire track history